Time;durP1;ratioP1;P1;durP2;ratioP2;P2;SDS_P1;SDS_P2;PMS_P1;PMS_P2;Temp;Humidity;BMP_temperature;BMP_pressure;BME280_temperature;BME280_humidity;BME280_pressure;Samples;Min_cycle;Max_cycle;Signal;HPM_P1;HPM_P2
2022/01/09 00:01:22;;;;;;;213.57;82.57;;;;;;;-1.38;72.62;99268.17;2096882;84;29872;-59
2022/01/09 00:04:29;;;;;;;145.20;63.68;;;;;;;-1.35;72.78;99267.27;2096646;84;31195;-59
2022/01/09 00:07:30;;;;;;;138.92;63.80;;;;;;;-1.32;72.80;99260.19;2096619;84;34646;-60
2022/01/09 00:10:34;;;;;;;131.15;64.85;;;;;;;-1.31;72.78;99253.16;2096615;84;30642;-59
2022/01/09 00:13:35;;;;;;;135.65;61.75;;;;;;;-1.32;72.76;99240.95;2097138;84;27729;-59
2022/01/09 00:16:37;;;;;;;170.75;73.15;;;;;;;-1.35;72.78;99227.86;2069999;85;29069;-59
2022/01/09 00:19:39;;;;;;;147.45;67.37;;;;;;;-1.37;72.77;99230.50;2075949;85;31247;-61
2022/01/09 00:22:48;;;;;;;162.75;67.82;;;;;;;-1.44;72.72;99232.83;2076701;85;33694;-59
2022/01/09 00:25:53;;;;;;;127.20;59.03;;;;;;;-1.47;72.74;99223.69;2077209;85;29516;-60
2022/01/09 00:28:55;;;;;;;126.40;56.73;;;;;;;-1.52;72.80;99221.16;2088136;83;27742;-60
2022/01/09 00:31:59;;;;;;;156.78;65.80;;;;;;;-1.59;72.74;99220.40;2095967;84;29975;-61
2022/01/09 00:35:03;;;;;;;216.00;80.72;;;;;;;-1.61;72.90;99216.93;2096534;84;31744;-60
2022/01/09 00:38:05;;;;;;;180.30;70.40;;;;;;;-1.69;72.85;99204.36;2097126;84;33764;-61
2022/01/09 00:41:09;;;;;;;137.30;57.90;;;;;;;-1.76;72.87;99197.05;2096860;84;29627;-61
2022/01/09 00:44:13;;;;;;;131.65;55.73;;;;;;;-1.83;72.96;99182.31;2096931;84;27645;-60
2022/01/09 00:47:15;;;;;;;120.22;55.10;;;;;;;-1.91;73.03;99179.81;2098198;84;28446;-65
2022/01/09 00:50:17;;;;;;;134.78;58.75;;;;;;;-1.98;73.38;99187.36;2099817;84;31927;-59
2022/01/09 00:53:19;;;;;;;122.35;56.35;;;;;;;-2.06;73.30;99180.92;2099650;84;34270;-60
2022/01/09 00:56:21;;;;;;;134.22;58.92;;;;;;;-2.12;73.46;99178.39;2100081;84;29782;-61
2022/01/09 00:59:23;;;;;;;133.35;57.30;;;;;;;-2.18;73.39;99176.73;2099959;84;27738;-59
2022/01/09 01:02:25;;;;;;;126.72;55.63;;;;;;;-2.24;73.51;99176.85;2099781;84;28019;-59
2022/01/09 01:05:27;;;;;;;121.85;54.53;;;;;;;-2.29;73.50;99185.23;2099849;84;31435;-59
2022/01/09 01:08:29;;;;;;;115.00;50.95;;;;;;;-2.34;73.62;99185.30;2099859;83;33137;-64
2022/01/09 01:11:32;;;;;;;112.72;50.20;;;;;;;-2.40;73.77;99171.42;2100078;84;30134;-59
2022/01/09 01:14:34;;;;;;;104.12;47.20;;;;;;;-2.45;73.78;99168.84;2100380;84;27765;-60
2022/01/09 01:17:37;;;;;;;114.55;53.75;;;;;;;-2.50;74.12;99167.61;2100054;83;29929;-60
2022/01/09 01:20:39;;;;;;;215.32;88.27;;;;;;;-2.54;74.10;99147.55;2100321;84;32051;-62
2022/01/09 01:23:42;;;;;;;225.50;87.70;;;;;;;-2.54;74.14;99141.45;2100110;84;33126;-60
2022/01/09 01:26:44;;;;;;;190.38;80.47;;;;;;;-2.56;74.28;99130.13;2099736;84;30512;-60
2022/01/09 01:29:46;;;;;;;212.65;86.72;;;;;;;-2.58;74.46;99124.91;2100208;84;27699;-60
2022/01/09 01:32:48;;;;;;;149.77;65.28;;;;;;;-2.62;74.53;99103.10;2099866;84;29926;-59
2022/01/09 01:35:50;;;;;;;179.63;79.05;;;;;;;-2.65;74.70;99099.24;2099821;84;31242;-62
2022/01/09 01:38:52;;;;;;;136.50;58.92;;;;;;;-2.69;74.80;99084.87;2100017;84;34176;-61
2022/01/09 01:41:54;;;;;;;109.65;52.90;;;;;;;-2.71;74.77;99080.09;2100050;84;29738;-59
2022/01/09 01:44:56;;;;;;;120.67;57.93;;;;;;;-2.72;74.73;99071.80;2099943;84;27732;-59
2022/01/09 01:48:05;;;;;;;107.72;52.45;;;;;;;-2.74;74.90;99063.98;2098075;84;29968;-59
2022/01/09 01:51:01;;;;;;;134.90;59.73;;;;;;;-2.75;75.20;99064.44;2086988;85;31099;-63
2022/01/09 01:54:04;;;;;;;129.65;60.08;;;;;;;-2.76;75.36;99057.89;2087654;85;34317;-60
2022/01/09 01:57:06;;;;;;;133.22;63.98;;;;;;;-2.80;75.37;99050.53;2087795;85;29795;-58
2022/01/09 02:00:12;;;;;;;129.80;62.55;;;;;;;-2.81;75.36;99052.73;2087665;85;27702;-60
2022/01/09 02:03:14;;;;;;;140.82;64.10;;;;;;;-2.81;75.37;99052.73;2088192;85;29346;-60
2022/01/09 02:06:17;;;;;;;125.67;60.52;;;;;;;-2.82;75.26;99056.23;2066131;85;31236;-58
2022/01/09 02:09:19;;;;;;;111.17;54.03;;;;;;;-2.83;75.32;99051.03;2046242;86;33066;-60
2022/01/09 02:12:21;;;;;;;93.92;47.10;;;;;;;-2.84;75.37;99058.01;2058280;86;29707;-57
2022/01/09 02:15:45;;;;;;;95.77;45.43;;;;;;;-2.85;75.52;99052.80;2058376;86;27646;-58
2022/01/09 02:18:48;;;;;;;94.70;45.40;;;;;;;-2.86;75.58;99052.38;2058157;86;29890;-58
2022/01/09 02:21:51;;;;;;;89.80;43.80;;;;;;;-2.87;75.77;99041.47;2058128;86;31128;-59
2022/01/09 02:24:53;;;;;;;106.78;49.30;;;;;;;-2.87;75.97;99039.70;2077118;85;33036;-58
2022/01/09 02:27:55;;;;;;;102.02;46.30;;;;;;;-2.85;75.98;99035.77;2093423;85;30469;-62
2022/01/09 02:30:57;;;;;;;98.00;46.90;;;;;;;-2.85;76.26;99036.62;2058822;86;27715;-61
2022/01/09 02:33:59;;;;;;;87.92;45.63;;;;;;;-2.84;76.42;99027.88;2057295;86;29130;-63
2022/01/09 02:37:02;;;;;;;95.85;46.37;;;;;;;-2.82;76.41;99022.62;2093485;85;32233;-63
2022/01/09 02:40:05;;;;;;;96.15;44.75;;;;;;;-2.81;76.35;99019.11;2057928;86;33110;-57
2022/01/09 02:43:08;;;;;;;94.17;43.75;;;;;;;-2.80;76.32;99015.58;2057451;86;29365;-63
2022/01/09 02:46:17;;;;;;;87.72;41.70;;;;;;;-2.80;76.44;99017.77;2093336;84;28150;-59
2022/01/09 02:49:16;;;;;;;82.80;40.75;;;;;;;-2.79;76.50;99007.70;2067056;86;29911;-57
2022/01/09 02:52:32;;;;;;;84.47;42.83;;;;;;;-2.78;76.53;98996.33;2091372;85;31786;-58
2022/01/09 02:55:28;;;;;;;85.60;42.25;;;;;;;-2.78;76.61;98987.16;2102916;84;32978;-59
2022/01/09 02:58:31;;;;;;;79.50;38.80;;;;;;;-2.76;76.52;98984.50;2070276;85;29369;-60
2022/01/09 03:01:32;;;;;;;95.22;44.42;;;;;;;-2.77;76.63;98973.59;2092147;85;27679;-60
2022/01/09 03:04:34;;;;;;;94.10;43.75;;;;;;;-2.78;76.56;98964.88;2097741;84;30168;-63
2022/01/09 03:07:39;;;;;;;90.17;40.25;;;;;;;-2.79;76.48;98963.16;2098769;84;32139;-63
2022/01/09 03:10:41;;;;;;;81.03;41.07;;;;;;;-2.79;76.73;98962.27;2099092;84;32989;-58
2022/01/09 03:13:43;;;;;;;83.27;41.23;;;;;;;-2.81;76.63;98969.32;2104538;84;30096;-58
2022/01/09 03:16:44;;;;;;;90.47;41.10;;;;;;;-2.84;76.58;98957.11;2070857;85;27656;-59
2022/01/09 03:19:47;;;;;;;81.70;41.23;;;;;;;-2.85;76.66;98952.76;2092345;85;28554;-58
2022/01/09 03:22:49;;;;;;;78.47;37.53;;;;;;;-2.87;76.64;98955.00;2098174;84;31044;-61
2022/01/09 03:25:51;;;;;;;88.17;40.43;;;;;;;-2.89;76.83;98949.77;2100070;84;34308;-62
2022/01/09 03:28:52;;;;;;;85.87;41.60;;;;;;;-2.91;76.65;98955.05;2099287;84;29719;-60
2022/01/09 03:31:54;;;;;;;83.78;41.85;;;;;;;-2.92;76.75;98950.69;2098533;84;27675;-60
2022/01/09 03:34:56;;;;;;;87.57;39.67;;;;;;;-2.93;76.75;98947.65;2099605;84;29046;-59
2022/01/09 03:37:58;;;;;;;72.78;39.05;;;;;;;-2.94;76.71;98952.93;2098085;84;32329;-59
2022/01/09 03:41:00;;;;;;;88.17;41.60;;;;;;;-2.97;76.84;98949.89;2099480;84;33292;-63
2022/01/09 03:44:02;;;;;;;86.37;44.27;;;;;;;-2.99;76.73;98950.39;2104668;84;30238;-60
2022/01/09 03:47:04;;;;;;;82.37;41.70;;;;;;;-2.99;76.78;98939.91;2104110;84;27678;-59
2022/01/09 03:50:10;;;;;;;82.30;40.88;;;;;;;-3.00;76.80;98938.18;2058298;86;28753;-60
2022/01/09 03:53:12;;;;;;;88.40;42.43;;;;;;;-3.02;77.01;98945.20;2080808;85;31038;-60
2022/01/09 03:56:14;;;;;;;78.80;40.48;;;;;;;-3.03;76.89;98939.53;2093285;85;33954;-59
2022/01/09 03:59:18;;;;;;;84.92;41.33;;;;;;;-3.05;76.89;98941.31;2058027;86;30274;-60
2022/01/09 04:02:20;;;;;;;81.23;39.73;;;;;;;-3.06;77.00;98935.19;2079512;85;27701;-63
2022/01/09 04:05:22;;;;;;;86.55;40.35;;;;;;;-3.06;76.91;98939.12;2086199;84;29865;-59
2022/01/09 04:08:23;;;;;;;86.87;41.63;;;;;;;-3.06;76.98;98939.58;2101101;84;31398;-60
2022/01/09 04:11:28;;;;;;;84.65;38.35;;;;;;;-3.07;77.01;98941.78;2101915;84;34202;-63
2022/01/09 04:14:29;;;;;;;79.20;37.08;;;;;;;-3.08;76.96;98938.30;2102158;84;29732;-60
2022/01/09 04:17:42;;;;;;;79.37;37.83;;;;;;;-3.08;76.93;98934.37;2092829;85;27691;-59
2022/01/09 04:20:35;;;;;;;77.37;38.08;;;;;;;-3.08;77.17;98934.80;2076265;85;28465;-58
2022/01/09 04:23:37;;;;;;;78.12;38.58;;;;;;;-3.08;77.20;98932.19;2098445;84;31871;-59
2022/01/09 04:26:38;;;;;;;82.22;37.10;;;;;;;-3.08;77.05;98933.06;2098493;84;33034;-59
2022/01/09 04:29:40;;;;;;;69.17;35.43;;;;;;;-3.07;77.09;98932.61;2100141;83;30769;-59
2022/01/09 04:32:43;;;;;;;69.53;34.70;;;;;;;-3.08;77.17;98927.83;2100120;83;27637;-59
2022/01/09 04:35:44;;;;;;;67.75;33.63;;;;;;;-3.07;77.13;98927.37;2099632;84;29484;-60
2022/01/09 04:38:46;;;;;;;63.08;33.42;;;;;;;-3.09;77.26;98924.78;2060728;86;31037;-59
2022/01/09 04:41:49;;;;;;;68.62;33.38;;;;;;;-3.08;77.35;98924.33;2060054;86;34181;-60
2022/01/09 04:44:51;;;;;;;64.97;33.25;;;;;;;-3.08;77.40;98916.47;2099799;84;29680;-61
2022/01/09 04:47:55;;;;;;;75.72;35.03;;;;;;;-3.09;77.34;98925.22;2100069;84;27648;-59
2022/01/09 04:50:58;;;;;;;75.92;36.63;;;;;;;-3.09;77.22;98923.91;2060699;86;28550;-59
2022/01/09 04:54:00;;;;;;;70.17;33.58;;;;;;;-3.09;77.18;98922.17;2061046;86;30862;-59
2022/01/09 04:57:03;;;;;;;71.20;35.52;;;;;;;-3.09;77.21;98920.86;2060239;86;33848;-59
2022/01/09 05:00:07;;;;;;;64.05;32.53;;;;;;;-3.10;77.32;98916.94;2060901;86;30491;-61
2022/01/09 05:03:10;;;;;;;69.03;34.23;;;;;;;-3.09;77.32;98912.12;2060162;85;27754;-59
2022/01/09 05:06:12;;;;;;;75.55;35.68;;;;;;;-3.10;77.22;98910.38;2099960;84;28668;-59
2022/01/09 05:09:14;;;;;;;85.00;35.20;;;;;;;-3.11;77.21;98904.30;2059738;86;30956;-65
2022/01/09 05:12:16;;;;;;;65.32;33.28;;;;;;;-3.12;77.27;98904.30;2061096;86;33427;-60
2022/01/09 05:15:19;;;;;;;70.37;34.35;;;;;;;-3.12;77.33;98907.80;2060351;86;30171;-61
2022/01/09 05:18:22;;;;;;;68.70;33.67;;;;;;;-3.11;77.32;98899.48;2100218;84;27760;-62
2022/01/09 05:21:23;;;;;;;63.00;31.97;;;;;;;-3.12;77.30;98892.09;2100223;84;29285;-63
2022/01/09 05:24:25;;;;;;;65.10;32.53;;;;;;;-3.11;77.41;98894.25;2100208;84;30841;-62
2022/01/09 05:27:27;;;;;;;59.33;30.27;;;;;;;-3.12;77.35;98888.59;2100196;84;32747;-64
2022/01/09 05:30:29;;;;;;;63.87;30.57;;;;;;;-3.11;77.44;98885.96;2061005;86;30814;-58
2022/01/09 05:33:32;;;;;;;63.05;29.98;;;;;;;-3.09;77.35;98884.61;2100193;84;28448;-61
2022/01/09 05:36:34;;;;;;;60.20;30.40;;;;;;;-3.09;77.36;98890.73;2060503;86;28528;-59
2022/01/09 05:39:36;;;;;;;55.98;28.00;;;;;;;-3.08;77.28;98888.96;2100238;84;30953;-60
2022/01/09 05:42:38;;;;;;;55.12;29.40;;;;;;;-3.09;77.24;98897.28;2060867;86;33759;-61
2022/01/09 05:45:40;;;;;;;54.53;29.05;;;;;;;-3.07;77.22;98885.45;2100472;84;29780;-59
2022/01/09 05:48:42;;;;;;;58.78;30.20;;;;;;;-3.08;77.23;98881.98;2061775;86;28028;-64
2022/01/09 05:51:44;;;;;;;53.33;27.65;;;;;;;-3.08;77.26;98888.96;2062598;86;29138;-57
2022/01/09 05:54:45;;;;;;;58.92;29.85;;;;;;;-3.08;77.24;98885.91;2063479;86;32418;-62
2022/01/09 05:57:47;;;;;;;55.58;29.85;;;;;;;-3.07;77.36;98890.69;2063738;86;33806;-60
2022/01/09 06:00:49;;;;;;;64.50;30.88;;;;;;;-3.07;77.26;98894.63;2063969;86;29568;-59
2022/01/09 06:03:50;;;;;;;57.98;29.90;;;;;;;-3.07;77.23;98899.86;2102980;84;27691;-62
2022/01/09 06:06:54;;;;;;;59.42;31.37;;;;;;;-3.10;77.15;98891.62;2103131;84;29032;-60
2022/01/09 06:09:56;;;;;;;54.77;29.80;;;;;;;-3.10;77.15;98887.69;2103122;84;31041;-61
2022/01/09 06:12:58;;;;;;;57.30;30.77;;;;;;;-3.10;77.12;98890.73;2102863;84;33560;-60
2022/01/09 06:16:00;;;;;;;57.58;29.42;;;;;;;-3.11;77.16;98891.20;2064316;86;30280;-60
2022/01/09 06:19:01;;;;;;;60.38;31.05;;;;;;;-3.12;77.11;98891.20;2063606;86;27697;-60
2022/01/09 06:22:04;;;;;;;63.70;32.08;;;;;;;-3.12;77.17;98893.83;2097837;84;28635;-60
2022/01/09 06:25:07;;;;;;;59.55;31.20;;;;;;;-3.13;77.18;98889.48;2144591;83;31846;-60
2022/01/09 06:28:09;;;;;;;63.17;33.78;;;;;;;-3.14;77.12;98890.39;2145644;83;33762;-62
2022/01/09 06:31:11;;;;;;;68.92;34.83;;;;;;;-3.16;77.10;98889.09;2145585;83;30831;-61
2022/01/09 06:34:14;;;;;;;75.80;38.00;;;;;;;-3.18;77.33;98884.78;2146104;83;27723;-60
2022/01/09 06:37:15;;;;;;;68.35;34.33;;;;;;;-3.20;77.12;98892.64;2145937;83;28651;-60
2022/01/09 06:40:18;;;;;;;63.87;32.08;;;;;;;-3.23;77.15;98888.80;2146013;83;31426;-61
2022/01/09 06:43:20;;;;;;;65.30;32.88;;;;;;;-3.24;77.08;98884.44;2145603;83;34330;-59
2022/01/09 06:46:26;;;;;;;60.12;32.73;;;;;;;-3.28;77.17;98878.83;2146217;83;29740;-59
2022/01/09 06:49:28;;;;;;;69.07;33.10;;;;;;;-3.29;77.19;98895.42;2145913;83;27736;-61
2022/01/09 06:52:30;;;;;;;60.75;34.67;;;;;;;-3.33;77.17;98885.45;2145997;83;29891;-59
2022/01/09 06:55:32;;;;;;;60.70;32.35;;;;;;;-3.34;77.22;98884.16;2146013;83;31841;-59
2022/01/09 06:58:36;;;;;;;62.27;32.13;;;;;;;-3.38;77.28;98882.03;2146315;83;32940;-61
2022/01/09 07:01:37;;;;;;;63.55;32.80;;;;;;;-3.40;77.23;98883.38;2145968;83;30015;-59
2022/01/09 07:04:39;;;;;;;72.82;33.95;;;;;;;-3.41;77.38;98879.46;2126729;83;27624;-62
2022/01/09 07:07:41;;;;;;;64.80;34.63;;;;;;;-3.41;77.37;98886.01;2107544;83;29889;-58
2022/01/09 07:10:43;;;;;;;58.75;32.10;;;;;;;-3.43;77.33;98880.81;2145913;83;31412;-59
2022/01/09 07:13:45;;;;;;;69.10;33.23;;;;;;;-3.42;77.40;98877.30;2145165;83;32927;-60
2022/01/09 07:16:46;;;;;;;77.90;38.40;;;;;;;-3.40;77.40;98874.22;2125486;83;30819;-58
2022/01/09 07:19:48;;;;;;;144.15;61.75;;;;;;;-3.40;77.54;98871.60;2103365;84;27771;-60
2022/01/09 07:22:50;;;;;;;87.70;42.35;;;;;;;-3.40;77.51;98865.05;2102927;84;30087;-59
2022/01/09 07:25:52;;;;;;;64.32;34.13;;;;;;;-3.38;77.48;98866.33;2102986;84;31415;-61
2022/01/09 07:28:53;;;;;;;65.15;33.15;;;;;;;-3.35;77.48;98866.28;2103683;84;33920;-61
2022/01/09 07:31:55;;;;;;;69.20;35.03;;;;;;;-3.32;77.51;98862.73;2103266;84;29965;-61
2022/01/09 07:35:00;;;;;;;67.20;35.90;;;;;;;-3.29;77.55;98864.86;2103503;84;27989;-61
2022/01/09 07:38:02;;;;;;;71.20;34.65;;;;;;;-3.25;77.58;98863.07;2142328;83;29062;-62
2022/01/09 07:41:04;;;;;;;72.92;35.83;;;;;;;-3.15;77.66;98862.47;2145219;83;31357;-59
2022/01/09 07:44:06;;;;;;;79.72;39.95;;;;;;;-3.03;77.68;98862.67;2145829;83;33305;-62
2022/01/09 07:47:08;;;;;;;71.45;36.15;;;;;;;-2.92;77.61;98856.36;2145425;83;30795;-63
2022/01/09 07:50:11;;;;;;;81.15;39.70;;;;;;;-2.80;77.65;98853.09;2145324;83;27711;-63
2022/01/09 07:53:15;;;;;;;68.90;35.80;;;;;;;-2.69;77.49;98859.44;2145789;83;28696;-60
2022/01/09 07:56:17;;;;;;;71.37;37.13;;;;;;;-2.60;77.43;98853.58;2146089;83;31426;-59
2022/01/09 07:59:19;;;;;;;66.77;35.88;;;;;;;-2.43;77.40;98856.77;2146071;83;34165;-60
2022/01/09 08:02:20;;;;;;;64.67;33.25;;;;;;;-2.26;77.38;98855.98;2146135;83;30002;-59
2022/01/09 08:05:22;;;;;;;53.33;30.02;;;;;;;-2.08;77.24;98854.72;2146195;83;27742;-60
2022/01/09 08:08:24;;;;;;;57.17;30.85;;;;;;;-1.95;76.89;98859.69;2146094;83;29209;-61
2022/01/09 08:11:26;;;;;;;60.48;31.42;;;;;;;-1.87;76.63;98852.52;2145735;83;32234;-60
2022/01/09 08:14:31;;;;;;;58.00;29.92;;;;;;;-1.79;76.51;98853.66;2145670;82;29961;-60
2022/01/09 08:17:32;;;;;;;57.58;29.18;;;;;;;-1.75;76.35;98856.17;2145981;82;30818;-61
2022/01/09 08:20:35;;;;;;;62.08;31.60;;;;;;;-1.71;76.21;98853.02;2145996;83;27794;-60
2022/01/09 08:23:36;;;;;;;63.75;31.30;;;;;;;-1.67;76.22;98848.12;2145629;83;28621;-60
2022/01/09 08:26:38;;;;;;;56.10;30.40;;;;;;;-1.64;76.15;98843.23;2145737;83;32262;-61
2022/01/09 08:29:40;;;;;;;56.05;30.15;;;;;;;-1.59;76.11;98852.76;2146032;83;33320;-61
2022/01/09 08:32:42;;;;;;;57.88;31.25;;;;;;;-1.53;76.09;98845.18;2145729;83;30840;-59
2022/01/09 08:35:44;;;;;;;56.85;31.35;;;;;;;-1.46;76.11;98850.68;2146131;83;27751;-60
2022/01/09 08:38:48;;;;;;;57.98;31.25;;;;;;;-1.38;76.00;98844.80;2146404;83;29611;-60
2022/01/09 08:41:50;;;;;;;53.00;30.02;;;;;;;-1.30;76.02;98848.55;2145702;83;31607;-60
2022/01/09 08:44:52;;;;;;;58.02;32.70;;;;;;;-1.22;75.81;98848.36;2145870;83;33107;-60
2022/01/09 08:47:53;;;;;;;56.55;31.23;;;;;;;-1.17;75.97;98850.87;2145975;83;30735;-60
2022/01/09 08:50:55;;;;;;;58.20;30.80;;;;;;;-1.04;75.89;98851.42;2131294;83;28348;-61
2022/01/09 08:53:58;;;;;;;58.85;31.70;;;;;;;-0.89;76.14;98852.77;2126024;83;29570;-60
2022/01/09 08:57:01;;;;;;;58.10;31.10;;;;;;;-0.77;76.00;98848.06;2126693;83;31238;-60
2022/01/09 09:00:05;;;;;;;54.93;30.32;;;;;;;-0.62;76.03;98852.48;2125232;83;33174;-63
2022/01/09 09:03:08;;;;;;;47.05;27.98;;;;;;;-0.52;75.88;98851.34;2127200;83;29642;-62
2022/01/09 09:06:16;;;;;;;49.00;27.32;;;;;;;-0.45;75.52;98849.41;2126704;83;27597;-61
2022/01/09 09:09:18;;;;;;;57.53;31.48;;;;;;;-0.33;75.52;98855.63;2124784;83;30049;-62
2022/01/09 09:12:20;;;;;;;52.48;29.48;;;;;;;-0.26;75.43;98847.09;2126286;83;31411;-64
2022/01/09 09:15:22;;;;;;;49.55;27.35;;;;;;;-0.16;75.33;98845.06;2125946;83;33739;-62
2022/01/09 09:18:24;;;;;;;49.98;28.35;;;;;;;-0.08;74.93;98839.10;2092250;85;31068;-60
2022/01/09 09:21:27;;;;;;;48.48;27.55;;;;;;;0.03;75.27;98834.84;2092904;85;27668;-60
2022/01/09 09:24:28;;;;;;;48.90;26.87;;;;;;;0.17;75.04;98833.58;2052003;86;29913;-59
2022/01/09 09:27:32;;;;;;;44.70;24.57;;;;;;;0.23;74.49;98833.36;2051546;86;31269;-60
2022/01/09 09:30:35;;;;;;;43.17;24.02;;;;;;;0.27;74.14;98838.95;2051448;86;33963;-61
2022/01/09 09:33:37;;;;;;;44.73;25.02;;;;;;;0.31;73.88;98832.69;2050865;86;29664;-60
2022/01/09 09:36:39;;;;;;;42.53;24.70;;;;;;;0.34;73.78;98823.34;2057672;85;27733;-62
2022/01/09 09:39:41;;;;;;;42.62;24.12;;;;;;;0.39;73.75;98824.07;2061340;85;29533;-62
2022/01/09 09:42:43;;;;;;;46.48;26.45;;;;;;;0.46;73.69;98818.14;2089321;83;31462;-62
2022/01/09 09:45:45;;;;;;;39.88;23.85;;;;;;;0.52;73.33;98815.32;2098103;83;33344;-63
2022/01/09 09:48:47;;;;;;;41.88;23.02;;;;;;;0.57;72.87;98812.09;2060550;85;30142;-62
2022/01/09 09:51:49;;;;;;;43.63;23.98;;;;;;;0.60;73.20;98812.44;2073878;84;27844;-65
2022/01/09 09:54:53;;;;;;;35.68;22.85;;;;;;;0.66;73.34;98804.34;2063620;85;28961;-63
2022/01/09 09:57:55;;;;;;;37.42;22.22;;;;;;;0.70;72.65;98799.81;2069816;85;31874;-63
2022/01/09 10:00:58;;;;;;;36.50;22.40;;;;;;;0.74;72.67;98805.39;2070804;84;32791;-63
2022/01/09 10:04:05;;;;;;;38.05;21.17;;;;;;;0.76;72.47;98802.22;2069034;84;30336;-63
2022/01/09 10:07:10;;;;;;;35.58;21.00;;;;;;;0.78;72.43;98796.92;2022013;86;27742;-69
2022/01/09 10:10:15;;;;;;;;;;;;;;;0.93;72.55;98795.07;1999207;86;28154;-68
2022/01/09 10:13:19;;;;;;;40.58;22.30;;;;;;;1.09;72.14;98792.75;2076611;84;31753;-68
2022/01/09 10:16:21;;;;;;;36.63;21.45;;;;;;;1.19;71.99;98793.28;2085545;83;32972;-71
2022/01/09 10:19:28;;;;;;;36.00;20.70;;;;;;;1.26;71.53;98784.25;2076308;84;29779;-70
2022/01/09 10:22:52;;;;;;;33.35;20.40;;;;;;;1.29;71.29;98788.09;2035580;86;27847;-68
2022/01/09 10:25:53;;;;;;;35.03;20.23;;;;;;;1.35;71.42;98787.86;2040907;86;29434;-68
2022/01/09 10:28:56;;;;;;;30.95;19.95;;;;;;;1.41;71.46;98789.87;2058975;84;31801;-68
2022/01/09 10:31:57;;;;;;;33.88;20.30;;;;;;;1.47;71.26;98783.06;2056748;85;33046;-68
2022/01/09 10:35:17;;;;;;;36.08;20.62;;;;;;;1.50;71.11;98782.92;2052148;85;30240;-67
2022/01/09 10:38:27;;;;;;;36.48;20.32;;;;;;;1.53;71.12;98775.38;2056359;86;27683;-69
2022/01/09 10:41:49;;;;;;;34.60;21.55;;;;;;;1.58;71.01;98769.44;2062414;84;28700;-70
2022/01/09 10:44:50;;;;;;;32.60;20.25;;;;;;;1.59;70.90;98768.08;2049060;84;31147;-70
2022/01/09 10:47:56;;;;;;;31.93;19.65;;;;;;;1.59;70.67;98776.00;2047098;84;33307;-71
2022/01/09 10:50:56;;;;;;;31.62;19.12;;;;;;;1.61;70.64;98776.81;2063415;84;29719;-72
2022/01/09 10:54:01;;;;;;;34.15;18.15;;;;;;;1.63;70.53;98777.61;2064090;84;28430;-70
2022/01/09 10:57:19;;;;;;;30.57;18.07;;;;;;;1.70;70.57;98776.05;2065434;84;28198;-73
2022/01/09 11:00:20;;;;;;;33.73;20.45;;;;;;;1.76;70.28;98771.39;2069472;84;31049;-71
2022/01/09 11:03:22;;;;;;;31.52;18.17;;;;;;;1.78;69.76;98770.88;2065015;84;33754;-73
2022/01/09 11:06:27;;;;;;;29.77;18.25;;;;;;;1.82;70.17;98767.67;2073838;84;29685;-67
2022/01/09 11:09:30;;;;;;;34.10;19.40;;;;;;;1.87;69.82;98764.85;2074177;84;27666;-71
2022/01/09 11:12:42;;;;;;;30.85;18.62;;;;;;;1.89;69.95;98769.14;2069829;84;29536;-69
2022/01/09 11:15:41;;;;;;;21.85;13.95;;;;;;;1.93;69.88;98764.15;2068302;84;31102;-66
2022/01/09 11:18:42;;;;;;;32.55;18.23;;;;;;;1.97;70.01;98768.84;2065387;84;33001;-71
2022/01/09 11:21:47;;;;;;;32.30;19.23;;;;;;;2.02;69.76;98764.25;2069671;84;30430;-75
2022/01/09 11:25:09;;;;;;;34.35;19.80;;;;;;;2.06;69.63;98773.78;2067186;84;27762;-66
2022/01/09 11:28:16;;;;;;;31.10;18.60;;;;;;;2.14;69.71;98762.91;2057952;84;29081;-66
2022/01/09 11:31:32;;;;;;;32.05;19.27;;;;;;;2.20;69.45;98762.64;2076970;84;31056;-67
2022/01/09 11:34:51;;;;;;;30.27;18.85;;;;;;;2.28;69.40;98761.88;2074706;84;33806;-70
2022/01/09 11:38:12;;;;;;;36.15;19.85;;;;;;;2.34;68.55;98762.09;2087669;84;27717;-68
2022/01/09 11:41:17;;;;;;;28.32;17.25;;;;;;;2.38;68.72;98756.21;2046062;84;27848;-66
2022/01/09 11:44:23;;;;;;;;;;;;;;;2.44;68.45;98761.25;2045038;85;28801;-70
2022/01/09 11:47:24;;;;;;;28.92;16.23;;;;;;;2.51;68.86;98757.89;2044463;84;31270;-68
2022/01/09 11:50:25;;;;;;;29.57;16.42;;;;;;;2.54;68.16;98745.88;2050284;84;33132;-70
2022/01/09 11:53:27;;;;;;;28.75;16.45;;;;;;;2.54;67.41;98753.80;2097492;83;29686;-71
2022/01/09 11:56:56;;;;;;;28.98;17.00;;;;;;;2.53;67.36;98750.28;2103802;83;27764;-70
2022/01/09 11:59:58;;;;;;;26.80;15.40;;;;;;;2.51;67.16;98752.13;2100435;83;28827;-69
2022/01/09 12:03:03;;;;;;;32.95;17.25;;;;;;;2.52;66.78;98751.20;2101892;83;31101;-67
2022/01/09 12:06:10;;;;;;;;;;;;;;;2.52;66.94;98752.53;2078443;84;32844;-67
2022/01/09 12:09:13;;;;;;;31.48;18.87;;;;;;;2.58;67.01;98758.02;2032964;85;28054;-64
2022/01/09 12:12:22;;;;;;;29.37;17.52;;;;;;;2.58;67.15;98754.93;2105396;83;27740;-67
2022/01/09 12:15:42;;;;;;;32.67;17.65;;;;;;;2.60;66.71;98763.26;2099803;83;29859;-65
2022/01/09 12:18:45;;;;;;;32.58;18.27;;;;;;;2.62;66.81;98753.48;2103010;83;31038;-68
2022/01/09 12:21:49;;;;;;;28.47;16.40;;;;;;;2.68;67.06;98754.52;2101684;83;33181;-70
2022/01/09 12:24:53;;;;;;;30.92;16.05;;;;;;;2.71;66.35;98752.63;2103118;83;29653;-64
2022/01/09 12:28:11;;;;;;;31.25;17.05;;;;;;;2.73;66.21;98761.81;2101322;83;27745;-66
2022/01/09 12:31:22;;;;;;;32.28;15.85;;;;;;;2.77;66.47;98764.73;2108195;83;28113;-65
2022/01/09 12:34:24;;;;;;;27.62;15.75;;;;;;;2.80;66.08;98761.09;2099460;83;31924;-67
2022/01/09 12:37:27;;;;;;;29.72;16.00;;;;;;;2.79;65.64;98766.85;2098792;83;32965;-66
2022/01/09 12:40:32;;;;;;;29.77;16.97;;;;;;;2.77;65.53;98771.34;2099400;84;30421;-67
2022/01/09 12:43:35;;;;;;;;;;;;;;;2.77;65.93;98769.14;2101699;84;27707;-63
2022/01/09 12:46:41;;;;;;;31.65;17.07;;;;;;;2.79;65.69;98769.94;2093242;85;29324;-65
2022/01/09 12:49:42;;;;;;;30.88;16.25;;;;;;;2.77;66.00;98773.98;2099733;84;31033;-65
2022/01/09 12:52:45;;;;;;;31.37;16.42;;;;;;;2.79;65.80;98776.55;2096765;84;33106;-65
2022/01/09 12:56:06;;;;;;;31.55;15.32;;;;;;;2.80;65.67;98774.30;2096707;84;30485;-65
2022/01/09 12:59:11;;;;;;;26.12;15.58;;;;;;;2.79;65.47;98779.20;2096981;84;27762;-63
2022/01/09 13:02:13;;;;;;;23.55;13.68;;;;;;;2.78;65.47;98781.00;2096771;84;28130;-63
2022/01/09 13:05:15;;;;;;;24.77;13.85;;;;;;;2.77;64.99;98773.11;2096835;84;31034;-65
2022/01/09 13:08:18;;;;;;;22.22;13.18;;;;;;;2.73;64.53;98781.17;2074019;84;33015;-65
2022/01/09 13:11:27;;;;;;;29.40;16.20;;;;;;;2.71;64.68;98780.84;2096720;83;29660;-67
2022/01/09 13:14:29;;;;;;;25.88;15.10;;;;;;;2.69;64.79;98783.56;2097057;84;27719;-66
2022/01/09 13:17:33;;;;;;;29.40;15.13;;;;;;;2.68;64.67;98793.74;2096018;84;28671;-64
2022/01/09 13:20:34;;;;;;;27.35;15.80;;;;;;;2.65;64.60;98785.93;2074271;84;31947;-64
2022/01/09 13:23:52;;;;;;;28.17;16.10;;;;;;;2.64;64.67;98792.62;2097054;84;32938;-66
2022/01/09 13:26:58;;;;;;;33.33;16.75;;;;;;;2.62;64.53;98796.63;2096957;84;29650;-67
2022/01/09 13:29:59;;;;;;;31.35;17.32;;;;;;;2.60;64.51;98802.91;2096162;84;27642;-68
2022/01/09 13:33:03;;;;;;;27.30;16.10;;;;;;;2.56;64.60;98804.36;2096097;84;28097;-66
2022/01/09 13:36:05;;;;;;;28.35;16.73;;;;;;;2.57;64.72;98803.87;2097110;83;32027;-67
2022/01/09 13:39:26;;;;;;;25.68;15.88;;;;;;;2.56;64.61;98808.32;2096866;84;33045;-66
2022/01/09 13:42:30;;;;;;;29.05;16.87;;;;;;;2.53;64.61;98812.41;2086642;85;29150;-67
2022/01/09 13:45:37;;;;;;;30.53;17.67;;;;;;;2.50;64.43;98812.52;2067112;85;27762;-66
2022/01/09 13:48:46;;;;;;;33.60;18.45;;;;;;;2.47;64.53;98814.44;2074013;85;28719;-65
2022/01/09 13:51:49;;;;;;;27.80;16.12;;;;;;;2.45;64.72;98813.19;2059500;86;31103;-65
2022/01/09 13:55:10;;;;;;;32.95;17.57;;;;;;;2.43;64.68;98819.84;2061870;86;33011;-63
2022/01/09 13:58:18;;;;;;;32.25;17.85;;;;;;;2.42;64.56;98831.34;2062556;86;29850;-65
2022/01/09 14:01:43;;;;;;;29.32;17.40;;;;;;;2.39;64.90;98827.97;2062649;86;27727;-65
2022/01/09 14:04:47;;;;;;;32.80;18.32;;;;;;;2.38;64.52;98832.41;2042978;86;29523;-67
2022/01/09 14:07:52;;;;;;;31.27;17.67;;;;;;;2.35;64.83;98830.33;2063551;86;31147;-70